Lincoln Colliery, Pennsylvania
Current Conditions -  °F | °C
As of 5:58 AM on Friday 31 Oct 2014 (Local Time) from KMUI Reporting Station
Overcast Overcast  
Wind Chill: 42°   Ceiling: 5500
Heat Index: 42°   Visibility: 10mi
Dew Point: 39°   Wind: 2mph
Humidity: 88%   Direction: 60°ENE
Pressure: 30.02"   Gusts: NA
Location:  40.5592°N, 76.3347°W
Report Text: KMUI 310958Z AUTO 06002KT 10SM OVC055 06/04 A3002 RMK AO2 SLP171 T00550037
Loading
Personal Weather Stations






























Interactive Weather Map
Tropical Storm Tracking
New forecast layout! Learn more

10-Day Weather Forecast

Advertisements
Track Severe Weather on mobile